Time,TemperatureF,DewpointF,PressureIn,WindDirection,WindDirectionDegrees,WindSpeedMPH,WindSpeedGustMPH,Humidity,HourlyPrecipIn,Conditions,Clouds,dailyrainin,SoftwareType,DateUTC
2013-03-29 00:08:00,61.3,52.0,29.99,SE,138,4.0,10.0,72,0.00,,,0.00,weatherlink.com 1.10,2013-03-29 06:08:00,
2013-03-29 00:23:00,60.7,52.0,29.99,SE,132,3.0,9.0,73,0.00,,,0.00,weatherlink.com 1.10,2013-03-29 06:23:00,
2013-03-29 00:38:00,60.0,52.0,29.99,SSE,149,1.0,10.0,75,0.00,,,0.00,weatherlink.com 1.10,2013-03-29 06:38:00,
2013-03-29 00:54:00,59.2,52.0,29.99,SE,127,2.0,7.0,76,0.00,,,0.00,weatherlink.com 1.10,2013-03-29 06:54:00,
2013-03-29 01:09:00,58.9,52.0,29.98,SE,137,4.0,10.0,77,0.00,,,0.00,weatherlink.com 1.10,2013-03-29 07:09:00,
2013-03-29 01:24:00,58.8,52.0,29.99,SE,132,1.0,8.0,77,0.00,,,0.00,weatherlink.com 1.10,2013-03-29 07:24:00,
2013-03-29 01:39:00,58.6,52.0,29.99,SE,144,3.0,9.0,78,0.00,,,0.00,weatherlink.com 1.10,2013-03-29 07:39:00,
2013-03-29 01:54:00,57.8,51.0,29.99,ESE,118,2.0,5.0,79,0.00,,,0.00,weatherlink.com 1.10,2013-03-29 07:54:00,
2013-03-29 02:09:00,56.9,51.0,29.99,ESE,112,1.0,7.0,81,0.00,,,0.00,weatherlink.com 1.10,2013-03-29 08:09:00,
2013-03-29 02:24:00,56.8,51.0,29.99,SE,138,5.0,8.0,81,0.00,,,0.00,weatherlink.com 1.10,2013-03-29 08:24:00,
2013-03-29 02:39:00,56.8,51.0,29.99,SSE,147,5.0,10.0,82,0.00,,,0.00,weatherlink.com 1.10,2013-03-29 08:39:00,
2013-03-29 02:54:00,56.9,52.0,29.99,SE,128,3.0,9.0,82,0.00,,,0.00,weatherlink.com 1.10,2013-03-29 08:54:00,
2013-03-29 03:09:00,56.7,51.0,29.98,SE,124,3.0,9.0,82,0.00,,,0.00,weatherlink.com 1.10,2013-03-29 09:09:00,
2013-03-29 03:24:00,56.5,51.0,29.98,SE,132,4.0,7.0,83,0.00,,,0.00,weatherlink.com 1.10,2013-03-29 09:24:00,
2013-03-29 03:39:00,56.2,51.0,29.98,SE,132,4.0,8.0,83,0.00,,,0.00,weatherlink.com 1.10,2013-03-29 09:39:00,
2013-03-29 03:54:00,56.3,52.0,29.98,SE,135,3.0,9.0,84,0.00,,,0.00,weatherlink.com 1.10,2013-03-29 09:54:00,
2013-03-29 04:09:00,56.2,52.0,29.98,SE,141,3.0,6.0,84,0.00,,,0.00,weatherlink.com 1.10,2013-03-29 10:09:00,
2013-03-29 04:24:00,55.7,51.0,29.98,SE,136,1.0,5.0,85,0.00,,,0.00,weatherlink.com 1.10,2013-03-29 10:24:00,
2013-03-29 04:39:00,55.4,51.0,29.99,SE,140,0.0,6.0,85,0.00,,,0.00,weatherlink.com 1.10,2013-03-29 10:39:00,
2013-03-29 04:54:00,55.6,52.0,29.99,SE,131,2.0,11.0,86,0.00,,,0.00,weatherlink.com 1.10,2013-03-29 10:54:00,
2013-03-29 05:09:00,55.8,51.0,29.99,ESE,123,7.0,11.0,85,0.00,,,0.00,weatherlink.com 1.10,2013-03-29 11:09:00,
2013-03-29 05:24:00,55.3,51.0,30.00,SE,141,3.0,6.0,86,0.00,,,0.00,weatherlink.com 1.10,2013-03-29 11:24:00,
2013-03-29 05:39:00,54.9,51.0,30.00,SE,137,5.0,7.0,87,0.00,,,0.00,weatherlink.com 1.10,2013-03-29 11:39:00,
2013-03-29 05:54:00,55.0,52.0,30.00,SSE,154,2.0,6.0,88,0.00,,,0.00,weatherlink.com 1.10,2013-03-29 11:54:00,
2013-03-29 06:09:00,55.7,52.0,30.01,SSE,161,2.0,8.0,87,0.00,,,0.00,weatherlink.com 1.10,2013-03-29 12:09:00,
2013-03-29 06:24:00,55.9,52.0,30.01,SSE,160,0.0,9.0,87,0.00,,,0.00,weatherlink.com 1.10,2013-03-29 12:24:00,
2013-03-29 06:39:00,55.8,52.0,30.01,South,173,5.0,9.0,87,0.00,,,0.00,weatherlink.com 1.10,2013-03-29 12:39:00,
2013-03-29 06:54:00,55.4,52.0,30.01,SE,143,5.0,9.0,87,0.00,,,0.00,weatherlink.com 1.10,2013-03-29 12:54:00,
2013-03-29 07:09:00,55.6,52.0,30.01,SSE,156,6.0,11.0,88,0.00,,,0.00,weatherlink.com 1.10,2013-03-29 13:09:00,
2013-03-29 07:24:00,56.5,53.0,30.02,SSE,158,9.0,10.0,87,0.00,,,0.00,weatherlink.com 1.10,2013-03-29 13:24:00,
2013-03-29 07:39:00,58.1,54.0,30.02,SSE,159,4.0,9.0,85,0.00,,,0.00,weatherlink.com 1.10,2013-03-29 13:39:00,
2013-03-29 07:54:00,59.4,54.0,30.03,SSE,163,7.0,11.0,83,0.00,,,0.00,weatherlink.com 1.10,2013-03-29 13:54:00,
2013-03-29 08:09:00,60.2,54.0,30.04,SSE,168,3.0,9.0,81,0.00,,,0.00,weatherlink.com 1.10,2013-03-29 14:09:00,
2013-03-29 08:24:00,60.8,55.0,30.04,SSE,163,3.0,8.0,81,0.00,,,0.00,weatherlink.com 1.10,2013-03-29 14:24:00,
2013-03-29 08:39:00,62.4,55.0,30.04,SSE,159,6.0,9.0,78,0.00,,,0.00,weatherlink.com 1.10,2013-03-29 14:39:00,
2013-03-29 08:54:00,63.4,56.0,30.04,SE,127,6.0,11.0,77,0.00,,,0.00,weatherlink.com 1.10,2013-03-29 14:54:00,
2013-03-29 09:09:00,63.9,56.0,30.03,South,188,8.0,13.0,76,0.00,,,0.00,weatherlink.com 1.10,2013-03-29 15:09:00,
2013-03-29 09:24:00,63.7,56.0,30.03,South,176,6.0,12.0,76,0.00,,,0.00,weatherlink.com 1.10,2013-03-29 15:24:00,
2013-03-29 09:39:00,64.1,56.0,30.03,SE,141,8.0,12.0,76,0.00,,,0.00,weatherlink.com 1.10,2013-03-29 15:39:00,
2013-03-29 09:54:00,64.7,57.0,30.03,SSE,166,4.0,11.0,76,0.00,,,0.00,weatherlink.com 1.10,2013-03-29 15:54:00,
2013-03-29 10:10:00,66.8,57.0,30.03,SSW,193,7.0,13.0,71,0.00,,,0.00,weatherlink.com 1.10,2013-03-29 16:10:00,
2013-03-29 10:25:00,67.4,57.0,30.02,South,174,10.0,13.0,70,0.00,,,0.00,weatherlink.com 1.10,2013-03-29 16:25:00,
2013-03-29 10:40:00,67.1,57.0,30.02,South,185,8.0,12.0,69,0.00,,,0.00,weatherlink.com 1.10,2013-03-29 16:40:00,
2013-03-29 10:55:00,67.4,57.0,30.02,SSW,204,10.0,15.0,69,0.00,,,0.00,weatherlink.com 1.10,2013-03-29 16:55:00,
2013-03-29 11:10:00,68.0,57.0,30.03,South,183,6.0,15.0,68,0.00,,,0.00,weatherlink.com 1.10,2013-03-29 17:10:00,
2013-03-29 11:25:00,68.1,57.0,30.02,SSW,212,12.0,16.0,68,0.00,,,0.00,weatherlink.com 1.10,2013-03-29 17:25:00,
2013-03-29 11:40:00,67.9,57.0,30.02,South,191,6.0,12.0,68,0.00,,,0.00,weatherlink.com 1.10,2013-03-29 17:40:00,
2013-03-29 11:55:00,68.6,57.0,30.02,SSW,208,4.0,8.0,67,0.00,,,0.00,weatherlink.com 1.10,2013-03-29 17:55:00,
2013-03-29 12:10:00,68.6,57.0,30.00,South,179,5.0,8.0,67,0.00,,,0.00,weatherlink.com 1.10,2013-03-29 18:10:00,
2013-03-29 12:25:00,68.9,57.0,30.00,SW,214,5.0,8.0,67,0.00,,,0.00,weatherlink.com 1.10,2013-03-29 18:25:00,
2013-03-29 12:40:00,69.6,58.0,30.00,SW,229,5.0,11.0,66,0.00,,,0.00,weatherlink.com 1.10,2013-03-29 18:40:00,
2013-03-29 12:55:00,70.1,58.0,29.99,South,191,7.0,10.0,65,0.00,,,0.00,weatherlink.com 1.10,2013-03-29 18:55:00,
2013-03-29 13:10:00,71.6,58.0,29.99,SW,220,2.0,10.0,63,0.00,,,0.00,weatherlink.com 1.10,2013-03-29 19:10:00,
2013-03-29 13:25:00,71.8,58.0,29.98,South,172,3.0,12.0,62,0.00,,,0.00,weatherlink.com 1.10,2013-03-29 19:25:00,
2013-03-29 13:40:00,72.1,57.0,29.97,South,190,6.0,13.0,60,0.00,,,0.00,weatherlink.com 1.10,2013-03-29 19:40:00,
2013-03-29 13:55:00,72.4,58.0,29.96,SE,141,8.0,13.0,60,0.00,,,0.00,weatherlink.com 1.10,2013-03-29 19:55:00,
2013-03-29 14:10:00,73.3,58.0,29.95,SSE,148,1.0,10.0,60,0.00,,,0.00,weatherlink.com 1.10,2013-03-29 20:10:00,
2013-03-29 14:25:00,75.1,59.0,29.95,SSE,157,8.0,12.0,57,0.00,,,0.00,weatherlink.com 1.10,2013-03-29 20:25:00,
2013-03-29 14:40:00,75.7,58.0,29.95,SSE,149,6.0,9.0,54,0.00,,,0.00,weatherlink.com 1.10,2013-03-29 20:40:00,
2013-03-29 14:55:00,76.0,58.0,29.95,SSE,154,7.0,9.0,54,0.00,,,0.00,weatherlink.com 1.10,2013-03-29 20:55:00,
2013-03-29 15:10:00,76.6,58.0,29.95,SE,139,10.0,11.0,52,0.00,,,0.00,weatherlink.com 1.10,2013-03-29 21:10:00,
2013-03-29 15:25:00,77.2,58.0,29.95,East,83,1.0,10.0,51,0.00,,,0.00,weatherlink.com 1.10,2013-03-29 21:25:00,
2013-03-29 15:40:00,77.6,57.0,29.94,ESE,115,7.0,10.0,50,0.00,,,0.00,weatherlink.com 1.10,2013-03-29 21:40:00,
2013-03-29 15:55:00,77.5,57.0,29.93,SE,138,6.0,11.0,50,0.00,,,0.00,weatherlink.com 1.10,2013-03-29 21:55:00,
2013-03-29 16:10:00,78.6,57.0,29.93,SSE,151,8.0,12.0,47,0.00,,,0.00,weatherlink.com 1.10,2013-03-29 22:10:00,
2013-03-29 16:25:00,78.0,57.0,29.93,SE,139,5.0,13.0,48,0.00,,,0.00,weatherlink.com 1.10,2013-03-29 22:25:00,
2013-03-29 16:40:00,77.6,56.0,29.93,South,181,6.0,13.0,47,0.00,,,0.00,weatherlink.com 1.10,2013-03-29 22:40:00,
2013-03-29 16:55:00,78.3,56.0,29.92,South,176,6.0,14.0,47,0.00,,,0.00,weatherlink.com 1.10,2013-03-29 22:55:00,
2013-03-29 17:10:00,78.0,57.0,29.91,SSE,153,6.0,11.0,48,0.00,,,0.00,weatherlink.com 1.10,2013-03-29 23:10:00,
2013-03-29 17:25:00,77.1,56.0,29.91,SSE,153,3.0,10.0,49,0.00,,,0.00,weatherlink.com 1.10,2013-03-29 23:25:00,
2013-03-29 17:40:00,76.7,56.0,29.91,South,170,2.0,8.0,49,0.00,,,0.00,weatherlink.com 1.10,2013-03-29 23:40:00,
2013-03-29 18:00:00,76.3,56.0,29.91,ESE,103,1.0,5.0,50,0.00,,,0.00,weatherlink.com 1.10,2013-03-30 00:00:00,
2013-03-29 18:10:00,75.5,56.0,29.91,ESE,107,1.0,7.0,51,0.00,,,0.00,weatherlink.com 1.10,2013-03-30 00:10:00,
2013-03-29 18:25:00,74.8,56.0,29.91,ESE,119,4.0,7.0,52,0.00,,,0.00,weatherlink.com 1.10,2013-03-30 00:25:00,
2013-03-29 18:40:00,73.7,56.0,29.92,SE,133,4.0,10.0,54,0.00,,,0.00,weatherlink.com 1.10,2013-03-30 00:40:00,
2013-03-29 18:55:00,72.5,56.0,29.92,SE,131,3.0,11.0,56,0.00,,,0.00,weatherlink.com 1.10,2013-03-30 00:55:00,
2013-03-29 19:10:00,71.3,56.0,29.93,SE,129,3.0,7.0,58,0.00,,,0.00,weatherlink.com 1.10,2013-03-30 01:10:00,
2013-03-29 19:26:00,70.0,56.0,29.91,SE,131,7.0,14.0,62,0.00,,,0.00,weatherlink.com 1.10,2013-03-30 01:26:00,
2013-03-29 19:41:00,68.6,56.0,29.89,SE,129,8.0,17.0,64,0.00,,,0.00,weatherlink.com 1.10,2013-03-30 01:41:00,
2013-03-29 19:56:00,67.8,56.0,29.89,SE,135,3.0,18.0,65,0.00,,,0.00,weatherlink.com 1.10,2013-03-30 01:56:00,
2013-03-29 20:11:00,67.2,56.0,29.90,SSE,148,17.0,25.0,67,0.00,,,0.00,weatherlink.com 1.10,2013-03-30 02:11:00,
2013-03-29 20:26:00,67.0,55.0,29.91,SE,141,10.0,19.0,66,0.00,,,0.00,weatherlink.com 1.10,2013-03-30 02:26:00,
2013-03-29 20:41:00,66.5,55.0,29.93,SSE,156,6.0,10.0,67,0.00,,,0.00,weatherlink.com 1.10,2013-03-30 02:41:00,
2013-03-29 20:56:00,66.2,55.0,29.93,South,183,5.0,10.0,67,0.00,,,0.00,weatherlink.com 1.10,2013-03-30 02:56:00,
2013-03-29 21:11:00,65.3,55.0,29.94,South,190,0.0,2.0,70,0.00,,,0.00,weatherlink.com 1.10,2013-03-30 03:11:00,
2013-03-29 21:26:00,64.9,55.0,29.95,ESE,104,2.0,2.0,71,0.00,,,0.00,weatherlink.com 1.10,2013-03-30 03:26:00,
2013-03-29 21:56:00,63.5,54.0,29.93,ESE,104,3.0,9.0,71,0.00,,,0.00,weatherlink.com 1.10,2013-03-30 03:56:00,
2013-03-29 22:11:00,63.1,54.0,29.94,ESE,122,7.0,12.0,71,0.00,,,0.00,weatherlink.com 1.10,2013-03-30 04:11:00,
2013-03-29 22:26:00,62.8,53.0,29.94,East,91,5.0,9.0,71,0.00,,,0.00,weatherlink.com 1.10,2013-03-30 04:26:00,
2013-03-29 22:41:00,62.5,53.0,29.94,ESE,116,4.0,11.0,71,0.00,,,0.00,weatherlink.com 1.10,2013-03-30 04:41:00,
2013-03-29 22:56:00,62.2,54.0,29.95,ESE,103,3.0,7.0,74,0.00,,,0.00,weatherlink.com 1.10,2013-03-30 04:56:00,
2013-03-29 23:45:00,60.5,55.0,29.93,East,88,1.0,2.0,81,0.00,,,0.00,weatherlink.com 1.10,2013-03-30 05:45:00,
2013-03-29 23:56:00,60.5,54.0,29.93,ESE,120,0.0,4.0,80,0.00,,,0.00,weatherlink.com 1.10,2013-03-30 05:56:00,